sensor_id;sensor_type;location;lat;lon;timestamp;P1;durP1;ratioP1;P2;durP2;ratioP2
9306;SDS011;4691;47.612;7.610;2022-08-21T00:01:20;3.95;;;3.40;;
9306;SDS011;4691;47.612;7.610;2022-08-21T00:03:47;6.35;;;3.92;;
9306;SDS011;4691;47.612;7.610;2022-08-21T00:06:13;4.07;;;3.67;;
9306;SDS011;4691;47.612;7.610;2022-08-21T00:08:38;6.88;;;3.90;;
9306;SDS011;4691;47.612;7.610;2022-08-21T00:11:05;6.40;;;3.42;;
9306;SDS011;4691;47.612;7.610;2022-08-21T00:13:32;5.35;;;3.75;;
9306;SDS011;4691;47.612;7.610;2022-08-21T00:15:58;6.95;;;3.88;;
9306;SDS011;4691;47.612;7.610;2022-08-21T00:18:24;5.18;;;3.75;;
9306;SDS011;4691;47.612;7.610;2022-08-21T00:20:49;4.30;;;3.75;;
9306;SDS011;4691;47.612;7.610;2022-08-21T00:23:15;4.82;;;3.70;;
9306;SDS011;4691;47.612;7.610;2022-08-21T00:25:41;5.88;;;3.85;;
9306;SDS011;4691;47.612;7.610;2022-08-21T00:28:07;4.68;;;3.92;;
9306;SDS011;4691;47.612;7.610;2022-08-21T00:30:33;4.65;;;3.30;;
9306;SDS011;4691;47.612;7.610;2022-08-21T00:32:59;6.20;;;3.85;;
9306;SDS011;4691;47.612;7.610;2022-08-21T00:35:26;3.95;;;3.60;;
9306;SDS011;4691;47.612;7.610;2022-08-21T00:37:58;4.18;;;3.55;;
9306;SDS011;4691;47.612;7.610;2022-08-21T00:40:26;4.97;;;3.75;;
9306;SDS011;4691;47.612;7.610;2022-08-21T00:42:55;4.18;;;3.78;;
9306;SDS011;4691;47.612;7.610;2022-08-21T00:45:21;7.45;;;3.88;;
9306;SDS011;4691;47.612;7.610;2022-08-21T00:47:47;6.75;;;4.20;;
9306;SDS011;4691;47.612;7.610;2022-08-21T00:50:13;6.95;;;4.13;;
9306;SDS011;4691;47.612;7.610;2022-08-21T00:52:38;6.43;;;3.63;;
9306;SDS011;4691;47.612;7.610;2022-08-21T00:55:06;5.88;;;3.40;;
9306;SDS011;4691;47.612;7.610;2022-08-21T00:57:39;7.03;;;3.27;;
9306;SDS011;4691;47.612;7.610;2022-08-21T01:00:10;3.30;;;2.97;;
9306;SDS011;4691;47.612;7.610;2022-08-21T01:02:38;9.05;;;3.22;;
9306;SDS011;4691;47.612;7.610;2022-08-21T01:05:04;5.68;;;3.10;;
9306;SDS011;4691;47.612;7.610;2022-08-21T01:07:30;4.28;;;3.17;;
9306;SDS011;4691;47.612;7.610;2022-08-21T01:09:56;4.70;;;2.90;;
9306;SDS011;4691;47.612;7.610;2022-08-21T01:12:21;6.20;;;2.97;;
9306;SDS011;4691;47.612;7.610;2022-08-21T01:14:48;4.05;;;2.78;;
9306;SDS011;4691;47.612;7.610;2022-08-21T01:17:13;6.80;;;3.15;;
9306;SDS011;4691;47.612;7.610;2022-08-21T01:19:40;4.53;;;3.35;;
9306;SDS011;4691;47.612;7.610;2022-08-21T01:22:06;8.05;;;3.33;;
9306;SDS011;4691;47.612;7.610;2022-08-21T01:24:32;3.40;;;2.80;;
9306;SDS011;4691;47.612;7.610;2022-08-21T01:26:58;7.15;;;3.50;;
9306;SDS011;4691;47.612;7.610;2022-08-21T01:32:04;6.30;;;3.08;;
9306;SDS011;4691;47.612;7.610;2022-08-21T01:34:31;3.72;;;2.80;;
9306;SDS011;4691;47.612;7.610;2022-08-21T01:36:58;5.18;;;2.83;;
9306;SDS011;4691;47.612;7.610;2022-08-21T01:39:24;4.25;;;3.17;;
9306;SDS011;4691;47.612;7.610;2022-08-21T01:41:49;5.05;;;3.17;;
9306;SDS011;4691;47.612;7.610;2022-08-21T01:44:14;6.70;;;3.53;;
9306;SDS011;4691;47.612;7.610;2022-08-21T01:46:40;7.18;;;3.53;;
9306;SDS011;4691;47.612;7.610;2022-08-21T01:49:05;3.88;;;3.00;;
9306;SDS011;4691;47.612;7.610;2022-08-21T01:51:31;3.83;;;2.70;;
9306;SDS011;4691;47.612;7.610;2022-08-21T01:53:57;2.80;;;2.60;;
9306;SDS011;4691;47.612;7.610;2022-08-21T01:56:22;3.13;;;2.45;;
9306;SDS011;4691;47.612;7.610;2022-08-21T01:58:49;3.15;;;2.50;;
9306;SDS011;4691;47.612;7.610;2022-08-21T02:01:14;4.60;;;2.60;;
9306;SDS011;4691;47.612;7.610;2022-08-21T02:03:40;4.82;;;2.45;;
9306;SDS011;4691;47.612;7.610;2022-08-21T02:06:06;4.38;;;2.60;;
9306;SDS011;4691;47.612;7.610;2022-08-21T02:08:36;3.63;;;2.65;;
9306;SDS011;4691;47.612;7.610;2022-08-21T02:11:01;2.85;;;2.42;;
9306;SDS011;4691;47.612;7.610;2022-08-21T02:13:27;3.15;;;2.50;;
9306;SDS011;4691;47.612;7.610;2022-08-21T02:15:53;3.20;;;2.40;;
9306;SDS011;4691;47.612;7.610;2022-08-21T02:19:36;3.53;;;2.40;;
9306;SDS011;4691;47.612;7.610;2022-08-21T02:22:02;3.65;;;2.53;;
9306;SDS011;4691;47.612;7.610;2022-08-21T02:24:28;5.18;;;2.60;;
9306;SDS011;4691;47.612;7.610;2022-08-21T02:26:53;4.72;;;2.60;;
9306;SDS011;4691;47.612;7.610;2022-08-21T02:29:19;7.60;;;2.50;;
9306;SDS011;4691;47.612;7.610;2022-08-21T02:31:44;4.35;;;2.83;;
9306;SDS011;4691;47.612;7.610;2022-08-21T02:34:09;2.90;;;2.60;;
9306;SDS011;4691;47.612;7.610;2022-08-21T02:36:34;3.80;;;2.63;;
9306;SDS011;4691;47.612;7.610;2022-08-21T02:39:00;2.90;;;2.60;;
9306;SDS011;4691;47.612;7.610;2022-08-21T02:41:25;5.10;;;2.95;;
9306;SDS011;4691;47.612;7.610;2022-08-21T02:43:51;7.10;;;3.22;;
9306;SDS011;4691;47.612;7.610;2022-08-21T02:46:17;6.28;;;3.10;;
9306;SDS011;4691;47.612;7.610;2022-08-21T02:48:44;3.88;;;2.63;;
9306;SDS011;4691;47.612;7.610;2022-08-21T02:51:11;7.47;;;3.05;;
9306;SDS011;4691;47.612;7.610;2022-08-21T02:53:38;5.07;;;3.17;;
9306;SDS011;4691;47.612;7.610;2022-08-21T02:56:06;5.18;;;3.00;;
9306;SDS011;4691;47.612;7.610;2022-08-21T02:58:35;3.58;;;3.03;;
9306;SDS011;4691;47.612;7.610;2022-08-21T03:01:03;5.28;;;3.10;;
9306;SDS011;4691;47.612;7.610;2022-08-21T03:03:30;6.40;;;2.92;;
9306;SDS011;4691;47.612;7.610;2022-08-21T03:05:56;5.05;;;2.95;;
9306;SDS011;4691;47.612;7.610;2022-08-21T03:08:21;3.55;;;2.47;;
9306;SDS011;4691;47.612;7.610;2022-08-21T03:10:48;3.17;;;2.80;;
9306;SDS011;4691;47.612;7.610;2022-08-21T03:13:16;3.13;;;2.47;;
9306;SDS011;4691;47.612;7.610;2022-08-21T03:15:42;5.85;;;2.72;;
9306;SDS011;4691;47.612;7.610;2022-08-21T03:18:08;7.70;;;2.72;;
9306;SDS011;4691;47.612;7.610;2022-08-21T03:20:35;6.57;;;2.88;;
9306;SDS011;4691;47.612;7.610;2022-08-21T03:23:03;3.90;;;2.80;;
9306;SDS011;4691;47.612;7.610;2022-08-21T03:25:29;4.60;;;2.78;;
9306;SDS011;4691;47.612;7.610;2022-08-21T03:28:00;3.58;;;3.28;;
9306;SDS011;4691;47.612;7.610;2022-08-21T03:30:26;3.42;;;3.13;;
9306;SDS011;4691;47.612;7.610;2022-08-21T03:32:52;4.43;;;2.95;;
9306;SDS011;4691;47.612;7.610;2022-08-21T03:35:18;6.25;;;2.90;;
9306;SDS011;4691;47.612;7.610;2022-08-21T03:37:44;3.15;;;2.70;;
9306;SDS011;4691;47.612;7.610;2022-08-21T03:40:10;7.10;;;3.17;;
9306;SDS011;4691;47.612;7.610;2022-08-21T03:42:38;3.28;;;2.97;;
9306;SDS011;4691;47.612;7.610;2022-08-21T03:45:05;4.47;;;2.80;;
9306;SDS011;4691;47.612;7.610;2022-08-21T03:47:31;5.72;;;2.65;;
9306;SDS011;4691;47.612;7.610;2022-08-21T03:49:56;4.18;;;2.45;;
9306;SDS011;4691;47.612;7.610;2022-08-21T03:52:22;7.28;;;2.97;;
9306;SDS011;4691;47.612;7.610;2022-08-21T03:54:48;4.50;;;2.72;;
9306;SDS011;4691;47.612;7.610;2022-08-21T03:57:15;5.68;;;3.03;;
9306;SDS011;4691;47.612;7.610;2022-08-21T03:59:41;5.13;;;3.03;;
9306;SDS011;4691;47.612;7.610;2022-08-21T04:02:07;4.20;;;2.97;;
9306;SDS011;4691;47.612;7.610;2022-08-21T04:04:33;6.05;;;3.08;;
9306;SDS011;4691;47.612;7.610;2022-08-21T04:06:59;6.15;;;2.90;;
9306;SDS011;4691;47.612;7.610;2022-08-21T04:09:25;5.72;;;2.88;;
9306;SDS011;4691;47.612;7.610;2022-08-21T04:11:51;2.78;;;2.40;;
9306;SDS011;4691;47.612;7.610;2022-08-21T04:14:17;3.40;;;2.65;;
9306;SDS011;4691;47.612;7.610;2022-08-21T04:16:43;4.47;;;3.25;;
9306;SDS011;4691;47.612;7.610;2022-08-21T04:19:09;5.32;;;3.13;;
9306;SDS011;4691;47.612;7.610;2022-08-21T04:21:36;3.92;;;2.60;;
9306;SDS011;4691;47.612;7.610;2022-08-21T04:24:02;6.00;;;2.33;;
9306;SDS011;4691;47.612;7.610;2022-08-21T04:26:29;6.38;;;2.88;;
9306;SDS011;4691;47.612;7.610;2022-08-21T04:28:55;3.05;;;2.70;;
9306;SDS011;4691;47.612;7.610;2022-08-21T04:31:22;3.95;;;2.53;;
9306;SDS011;4691;47.612;7.610;2022-08-21T04:33:48;3.40;;;2.22;;
9306;SDS011;4691;47.612;7.610;2022-08-21T04:36:13;3.78;;;2.50;;
9306;SDS011;4691;47.612;7.610;2022-08-21T04:38:38;2.40;;;2.20;;
9306;SDS011;4691;47.612;7.610;2022-08-21T04:41:03;4.43;;;2.50;;
9306;SDS011;4691;47.612;7.610;2022-08-21T04:43:31;3.50;;;2.63;;
9306;SDS011;4691;47.612;7.610;2022-08-21T04:45:57;3.47;;;2.30;;
9306;SDS011;4691;47.612;7.610;2022-08-21T04:48:23;5.13;;;2.40;;
9306;SDS011;4691;47.612;7.610;2022-08-21T04:51:02;4.38;;;2.33;;
9306;SDS011;4691;47.612;7.610;2022-08-21T04:56:15;6.60;;;2.50;;
9306;SDS011;4691;47.612;7.610;2022-08-21T04:58:45;3.60;;;2.30;;
9306;SDS011;4691;47.612;7.610;2022-08-21T05:01:15;3.23;;;2.60;;
9306;SDS011;4691;47.612;7.610;2022-08-21T05:03:44;5.50;;;2.75;;
9306;SDS011;4691;47.612;7.610;2022-08-21T05:06:11;4.95;;;2.75;;
9306;SDS011;4691;47.612;7.610;2022-08-21T05:08:38;3.65;;;2.78;;
9306;SDS011;4691;47.612;7.610;2022-08-21T05:11:05;6.15;;;2.80;;
9306;SDS011;4691;47.612;7.610;2022-08-21T05:13:31;3.67;;;2.50;;
9306;SDS011;4691;47.612;7.610;2022-08-21T05:15:58;5.30;;;2.50;;
9306;SDS011;4691;47.612;7.610;2022-08-21T05:18:23;5.50;;;3.60;;
9306;SDS011;4691;47.612;7.610;2022-08-21T05:20:49;3.47;;;3.15;;
9306;SDS011;4691;47.612;7.610;2022-08-21T05:23:15;3.67;;;2.80;;
9306;SDS011;4691;47.612;7.610;2022-08-21T05:25:41;6.55;;;2.80;;
9306;SDS011;4691;47.612;7.610;2022-08-21T05:28:08;6.50;;;3.17;;
9306;SDS011;4691;47.612;7.610;2022-08-21T05:30:34;3.80;;;2.67;;
9306;SDS011;4691;47.612;7.610;2022-08-21T05:33:00;5.95;;;3.38;;
9306;SDS011;4691;47.612;7.610;2022-08-21T05:35:28;4.25;;;3.08;;
9306;SDS011;4691;47.612;7.610;2022-08-21T05:37:54;5.50;;;2.90;;
9306;SDS011;4691;47.612;7.610;2022-08-21T05:40:21;5.10;;;3.10;;
9306;SDS011;4691;47.612;7.610;2022-08-21T05:42:47;6.18;;;3.15;;
9306;SDS011;4691;47.612;7.610;2022-08-21T05:45:12;3.92;;;3.20;;
9306;SDS011;4691;47.612;7.610;2022-08-21T05:47:38;8.25;;;3.47;;
9306;SDS011;4691;47.612;7.610;2022-08-21T05:50:04;5.18;;;4.07;;
9306;SDS011;4691;47.612;7.610;2022-08-21T05:52:30;5.15;;;4.25;;
9306;SDS011;4691;47.612;7.610;2022-08-21T05:54:56;5.72;;;3.95;;
9306;SDS011;4691;47.612;7.610;2022-08-21T05:57:21;6.20;;;3.60;;
9306;SDS011;4691;47.612;7.610;2022-08-21T05:59:48;4.25;;;3.58;;
9306;SDS011;4691;47.612;7.610;2022-08-21T06:02:13;6.18;;;3.47;;
9306;SDS011;4691;47.612;7.610;2022-08-21T06:04:41;4.78;;;3.40;;
9306;SDS011;4691;47.612;7.610;2022-08-21T06:07:08;3.90;;;3.47;;
9306;SDS011;4691;47.612;7.610;2022-08-21T06:09:33;4.72;;;3.15;;
9306;SDS011;4691;47.612;7.610;2022-08-21T06:12:02;8.82;;;3.80;;
9306;SDS011;4691;47.612;7.610;2022-08-21T06:14:31;5.28;;;3.90;;
9306;SDS011;4691;47.612;7.610;2022-08-21T06:17:04;3.88;;;3.42;;
9306;SDS011;4691;47.612;7.610;2022-08-21T06:19:30;6.07;;;3.50;;
9306;SDS011;4691;47.612;7.610;2022-08-21T06:21:56;7.82;;;3.65;;
9306;SDS011;4691;47.612;7.610;2022-08-21T06:24:21;4.90;;;3.38;;
9306;SDS011;4691;47.612;7.610;2022-08-21T06:26:46;4.03;;;3.40;;
9306;SDS011;4691;47.612;7.610;2022-08-21T06:29:12;3.67;;;3.38;;
9306;SDS011;4691;47.612;7.610;2022-08-21T06:31:41;4.57;;;4.10;;
9306;SDS011;4691;47.612;7.610;2022-08-21T06:34:06;6.93;;;3.60;;
9306;SDS011;4691;47.612;7.610;2022-08-21T06:36:32;4.00;;;3.60;;
9306;SDS011;4691;47.612;7.610;2022-08-21T06:39:00;3.97;;;3.00;;
9306;SDS011;4691;47.612;7.610;2022-08-21T06:41:26;4.20;;;3.22;;
9306;SDS011;4691;47.612;7.610;2022-08-21T06:43:51;6.05;;;3.33;;
9306;SDS011;4691;47.612;7.610;2022-08-21T06:46:16;5.50;;;3.42;;
9306;SDS011;4691;47.612;7.610;2022-08-21T06:48:42;6.60;;;2.90;;
9306;SDS011;4691;47.612;7.610;2022-08-21T06:51:07;3.13;;;2.60;;
9306;SDS011;4691;47.612;7.610;2022-08-21T06:53:33;4.65;;;2.72;;
9306;SDS011;4691;47.612;7.610;2022-08-21T06:55:58;2.55;;;2.22;;
9306;SDS011;4691;47.612;7.610;2022-08-21T06:58:24;5.90;;;2.50;;
9306;SDS011;4691;47.612;7.610;2022-08-21T07:00:50;2.70;;;2.30;;
9306;SDS011;4691;47.612;7.610;2022-08-21T07:05:44;2.88;;;2.35;;
9306;SDS011;4691;47.612;7.610;2022-08-21T07:08:09;5.68;;;3.00;;
9306;SDS011;4691;47.612;7.610;2022-08-21T07:10:35;3.90;;;3.25;;
9306;SDS011;4691;47.612;7.610;2022-08-21T07:13:00;4.80;;;3.90;;
9306;SDS011;4691;47.612;7.610;2022-08-21T07:15:26;5.57;;;4.80;;
9306;SDS011;4691;47.612;7.610;2022-08-21T07:17:52;6.28;;;5.70;;
9306;SDS011;4691;47.612;7.610;2022-08-21T07:20:39;6.43;;;4.90;;
9306;SDS011;4691;47.612;7.610;2022-08-21T07:23:08;5.18;;;4.40;;
9306;SDS011;4691;47.612;7.610;2022-08-21T07:25:35;6.45;;;4.93;;
9306;SDS011;4691;47.612;7.610;2022-08-21T07:28:01;5.93;;;5.43;;
9306;SDS011;4691;47.612;7.610;2022-08-21T07:30:29;5.93;;;5.15;;
9306;SDS011;4691;47.612;7.610;2022-08-21T07:32:55;6.20;;;5.38;;
9306;SDS011;4691;47.612;7.610;2022-08-21T07:35:21;7.05;;;6.32;;
9306;SDS011;4691;47.612;7.610;2022-08-21T07:37:58;7.60;;;6.88;;
9306;SDS011;4691;47.612;7.610;2022-08-21T07:40:30;7.97;;;7.28;;
9306;SDS011;4691;47.612;7.610;2022-08-21T07:42:56;8.02;;;6.57;;
9306;SDS011;4691;47.612;7.610;2022-08-21T07:45:22;8.00;;;7.30;;
9306;SDS011;4691;47.612;7.610;2022-08-21T07:47:49;9.88;;;6.95;;
9306;SDS011;4691;47.612;7.610;2022-08-21T07:50:15;8.68;;;5.90;;
9306;SDS011;4691;47.612;7.610;2022-08-21T07:52:41;6.00;;;5.50;;
9306;SDS011;4691;47.612;7.610;2022-08-21T07:55:11;9.13;;;6.75;;
9306;SDS011;4691;47.612;7.610;2022-08-21T07:57:38;7.50;;;6.13;;
9306;SDS011;4691;47.612;7.610;2022-08-21T08:00:04;6.53;;;5.93;;
9306;SDS011;4691;47.612;7.610;2022-08-21T08:02:34;8.93;;;6.43;;
9306;SDS011;4691;47.612;7.610;2022-08-21T08:05:01;6.80;;;6.15;;
9306;SDS011;4691;47.612;7.610;2022-08-21T08:07:30;7.25;;;6.55;;
9306;SDS011;4691;47.612;7.610;2022-08-21T08:09:56;6.00;;;5.50;;
9306;SDS011;4691;47.612;7.610;2022-08-21T08:12:23;5.78;;;5.28;;
9306;SDS011;4691;47.612;7.610;2022-08-21T08:14:54;6.32;;;5.72;;
9306;SDS011;4691;47.612;7.610;2022-08-21T08:17:24;7.15;;;5.75;;
9306;SDS011;4691;47.612;7.610;2022-08-21T08:19:50;6.05;;;5.45;;
9306;SDS011;4691;47.612;7.610;2022-08-21T08:22:19;6.10;;;4.70;;
9306;SDS011;4691;47.612;7.610;2022-08-21T08:24:51;4.78;;;4.30;;
9306;SDS011;4691;47.612;7.610;2022-08-21T08:27:17;4.40;;;4.00;;
9306;SDS011;4691;47.612;7.610;2022-08-21T08:29:43;4.20;;;3.63;;
9306;SDS011;4691;47.612;7.610;2022-08-21T08:32:09;4.88;;;4.10;;
9306;SDS011;4691;47.612;7.610;2022-08-21T08:34:36;6.00;;;3.80;;
9306;SDS011;4691;47.612;7.610;2022-08-21T08:37:02;4.25;;;3.38;;
9306;SDS011;4691;47.612;7.610;2022-08-21T08:39:29;4.55;;;3.20;;
9306;SDS011;4691;47.612;7.610;2022-08-21T08:41:57;3.60;;;3.30;;
9306;SDS011;4691;47.612;7.610;2022-08-21T08:44:29;4.30;;;3.33;;
9306;SDS011;4691;47.612;7.610;2022-08-21T08:46:55;3.65;;;3.33;;
9306;SDS011;4691;47.612;7.610;2022-08-21T08:51:52;4.57;;;3.60;;
9306;SDS011;4691;47.612;7.610;2022-08-21T08:54:31;4.65;;;3.58;;
9306;SDS011;4691;47.612;7.610;2022-08-21T08:57:07;3.72;;;3.20;;
9306;SDS011;4691;47.612;7.610;2022-08-21T08:59:40;3.47;;;2.40;;
9306;SDS011;4691;47.612;7.610;2022-08-21T09:02:08;3.25;;;2.92;;
9306;SDS011;4691;47.612;7.610;2022-08-21T09:04:36;3.75;;;2.60;;
9306;SDS011;4691;47.612;7.610;2022-08-21T09:12:38;3.25;;;2.90;;
9306;SDS011;4691;47.612;7.610;2022-08-21T09:15:19;4.47;;;2.60;;
9306;SDS011;4691;47.612;7.610;2022-08-21T09:18:09;5.18;;;2.95;;
9306;SDS011;4691;47.612;7.610;2022-08-21T09:24:04;5.43;;;2.90;;
9306;SDS011;4691;47.612;7.610;2022-08-21T09:29:43;2.83;;;2.63;;
9306;SDS011;4691;47.612;7.610;2022-08-21T09:32:28;3.13;;;2.67;;
9306;SDS011;4691;47.612;7.610;2022-08-21T09:35:12;3.20;;;2.90;;
9306;SDS011;4691;47.612;7.610;2022-08-21T09:37:46;4.10;;;2.40;;
9306;SDS011;4691;47.612;7.610;2022-08-21T09:40:36;2.60;;;2.40;;
9306;SDS011;4691;47.612;7.610;2022-08-21T09:43:15;3.03;;;2.63;;
9306;SDS011;4691;47.612;7.610;2022-08-21T09:45:43;3.00;;;2.67;;
9306;SDS011;4691;47.612;7.610;2022-08-21T09:50:46;2.13;;;1.92;;
9306;SDS011;4691;47.612;7.610;2022-08-21T09:53:17;4.20;;;2.17;;
9306;SDS011;4691;47.612;7.610;2022-08-21T09:55:58;1.98;;;1.80;;
9306;SDS011;4691;47.612;7.610;2022-08-21T09:58:46;1.90;;;1.80;;
9306;SDS011;4691;47.612;7.610;2022-08-21T10:01:16;3.20;;;2.10;;
9306;SDS011;4691;47.612;7.610;2022-08-21T10:03:44;3.50;;;1.83;;
9306;SDS011;4691;47.612;7.610;2022-08-21T10:06:19;2.03;;;1.83;;
9306;SDS011;4691;47.612;7.610;2022-08-21T10:08:47;3.90;;;1.90;;
9306;SDS011;4691;47.612;7.610;2022-08-21T10:11:13;1.90;;;1.70;;
9306;SDS011;4691;47.612;7.610;2022-08-21T10:19:47;2.88;;;1.83;;
9306;SDS011;4691;47.612;7.610;2022-08-21T10:22:24;1.88;;;1.40;;
9306;SDS011;4691;47.612;7.610;2022-08-21T10:27:47;3.83;;;1.83;;
9306;SDS011;4691;47.612;7.610;2022-08-21T10:30:45;4.15;;;1.67;;
9306;SDS011;4691;47.612;7.610;2022-08-21T10:36:11;1.70;;;1.20;;
9306;SDS011;4691;47.612;7.610;2022-08-21T10:41:31;1.35;;;1.15;;
9306;SDS011;4691;47.612;7.610;2022-08-21T10:44:17;2.00;;;1.50;;
9306;SDS011;4691;47.612;7.610;2022-08-21T10:50:15;2.00;;;1.50;;
9306;SDS011;4691;47.612;7.610;2022-08-21T10:55:56;2.38;;;1.40;;
9306;SDS011;4691;47.612;7.610;2022-08-21T10:58:34;3.30;;;1.20;;
9306;SDS011;4691;47.612;7.610;2022-08-21T11:01:23;3.45;;;1.27;;
9306;SDS011;4691;47.612;7.610;2022-08-21T11:04:21;1.98;;;1.45;;
9306;SDS011;4691;47.612;7.610;2022-08-21T11:06:57;2.17;;;1.50;;
9306;SDS011;4691;47.612;7.610;2022-08-21T11:09:27;1.60;;;1.48;;
9306;SDS011;4691;47.612;7.610;2022-08-21T11:17:11;2.50;;;1.20;;
9306;SDS011;4691;47.612;7.610;2022-08-21T11:25:49;3.42;;;1.52;;
9306;SDS011;4691;47.612;7.610;2022-08-21T11:28:31;2.20;;;1.38;;
9306;SDS011;4691;47.612;7.610;2022-08-21T11:31:21;2.05;;;1.40;;
9306;SDS011;4691;47.612;7.610;2022-08-21T11:37:25;1.92;;;1.60;;
9306;SDS011;4691;47.612;7.610;2022-08-21T11:43:40;2.17;;;1.40;;
9306;SDS011;4691;47.612;7.610;2022-08-21T12:16:12;1.25;;;0.93;;
9306;SDS011;4691;47.612;7.610;2022-08-21T12:19:02;2.08;;;1.10;;
9306;SDS011;4691;47.612;7.610;2022-08-21T12:21:33;1.35;;;0.95;;
9306;SDS011;4691;47.612;7.610;2022-08-21T12:24:50;1.40;;;1.05;;
9306;SDS011;4691;47.612;7.610;2022-08-21T12:29:58;1.55;;;1.00;;
9306;SDS011;4691;47.612;7.610;2022-08-21T12:32:30;1.98;;;0.82;;
9306;SDS011;4691;47.612;7.610;2022-08-21T12:35:18;1.25;;;0.90;;
9306;SDS011;4691;47.612;7.610;2022-08-21T12:37:56;2.28;;;1.00;;
9306;SDS011;4691;47.612;7.610;2022-08-21T12:46:51;2.97;;;1.27;;
9306;SDS011;4691;47.612;7.610;2022-08-21T12:50:00;1.55;;;1.05;;
9306;SDS011;4691;47.612;7.610;2022-08-21T12:59:41;1.70;;;0.88;;
9306;SDS011;4691;47.612;7.610;2022-08-21T13:02:18;1.77;;;1.10;;
9306;SDS011;4691;47.612;7.610;2022-08-21T13:04:50;1.33;;;1.00;;
9306;SDS011;4691;47.612;7.610;2022-08-21T13:07:43;1.15;;;0.98;;
9306;SDS011;4691;47.612;7.610;2022-08-21T13:10:29;3.20;;;0.90;;
9306;SDS011;4691;47.612;7.610;2022-08-21T13:12:58;1.13;;;0.90;;
9306;SDS011;4691;47.612;7.610;2022-08-21T13:15:32;1.10;;;0.85;;
9306;SDS011;4691;47.612;7.610;2022-08-21T13:27:59;2.33;;;1.17;;
9306;SDS011;4691;47.612;7.610;2022-08-21T14:03:08;2.33;;;1.00;;
9306;SDS011;4691;47.612;7.610;2022-08-21T14:11:34;1.20;;;1.10;;
9306;SDS011;4691;47.612;7.610;2022-08-21T14:21:57;2.83;;;1.60;;
9306;SDS011;4691;47.612;7.610;2022-08-21T14:31:14;4.68;;;1.58;;
9306;SDS011;4691;47.612;7.610;2022-08-21T14:33:42;2.55;;;1.60;;
9306;SDS011;4691;47.612;7.610;2022-08-21T14:36:08;2.53;;;1.40;;
9306;SDS011;4691;47.612;7.610;2022-08-21T14:38:34;2.28;;;1.33;;
9306;SDS011;4691;47.612;7.610;2022-08-21T14:41:04;3.97;;;1.45;;
9306;SDS011;4691;47.612;7.610;2022-08-21T14:43:35;3.50;;;1.52;;
9306;SDS011;4691;47.612;7.610;2022-08-21T14:46:01;2.78;;;1.20;;
9306;SDS011;4691;47.612;7.610;2022-08-21T14:48:26;2.15;;;1.48;;
9306;SDS011;4691;47.612;7.610;2022-08-21T14:50:51;2.10;;;1.20;;
9306;SDS011;4691;47.612;7.610;2022-08-21T14:53:17;2.08;;;1.30;;
9306;SDS011;4691;47.612;7.610;2022-08-21T14:55:42;3.17;;;1.27;;
9306;SDS011;4691;47.612;7.610;2022-08-21T14:58:26;4.40;;;1.42;;
9306;SDS011;4691;47.612;7.610;2022-08-21T15:00:52;3.92;;;1.38;;
9306;SDS011;4691;47.612;7.610;2022-08-21T15:03:19;3.58;;;1.75;;
9306;SDS011;4691;47.612;7.610;2022-08-21T15:05:46;1.92;;;1.35;;
9306;SDS011;4691;47.612;7.610;2022-08-21T15:08:13;2.63;;;1.30;;
9306;SDS011;4691;47.612;7.610;2022-08-21T15:10:38;3.17;;;1.30;;
9306;SDS011;4691;47.612;7.610;2022-08-21T15:13:03;1.73;;;1.30;;
9306;SDS011;4691;47.612;7.610;2022-08-21T15:15:30;2.85;;;1.50;;
9306;SDS011;4691;47.612;7.610;2022-08-21T15:18:00;3.15;;;1.30;;
9306;SDS011;4691;47.612;7.610;2022-08-21T15:20:25;3.15;;;1.20;;
9306;SDS011;4691;47.612;7.610;2022-08-21T15:22:51;2.50;;;1.10;;
9306;SDS011;4691;47.612;7.610;2022-08-21T15:25:16;2.75;;;1.40;;
9306;SDS011;4691;47.612;7.610;2022-08-21T15:27:42;2.85;;;1.27;;
9306;SDS011;4691;47.612;7.610;2022-08-21T15:30:07;1.70;;;1.30;;
9306;SDS011;4691;47.612;7.610;2022-08-21T15:32:33;2.88;;;1.33;;
9306;SDS011;4691;47.612;7.610;2022-08-21T15:34:58;1.55;;;1.10;;
9306;SDS011;4691;47.612;7.610;2022-08-21T15:37:24;2.88;;;1.33;;
9306;SDS011;4691;47.612;7.610;2022-08-21T15:39:50;2.00;;;1.30;;
9306;SDS011;4691;47.612;7.610;2022-08-21T15:42:16;3.83;;;1.38;;
9306;SDS011;4691;47.612;7.610;2022-08-21T15:44:43;2.05;;;1.20;;
9306;SDS011;4691;47.612;7.610;2022-08-21T15:47:11;1.75;;;1.10;;
9306;SDS011;4691;47.612;7.610;2022-08-21T15:49:38;1.90;;;1.10;;
9306;SDS011;4691;47.612;7.610;2022-08-21T15:52:04;2.80;;;1.52;;
9306;SDS011;4691;47.612;7.610;2022-08-21T15:54:29;2.30;;;1.30;;
9306;SDS011;4691;47.612;7.610;2022-08-21T15:56:55;1.95;;;1.25;;
9306;SDS011;4691;47.612;7.610;2022-08-21T15:59:21;2.03;;;1.27;;
9306;SDS011;4691;47.612;7.610;2022-08-21T16:01:48;2.40;;;1.20;;
9306;SDS011;4691;47.612;7.610;2022-08-21T16:04:18;4.00;;;1.20;;
9306;SDS011;4691;47.612;7.610;2022-08-21T16:06:49;2.28;;;1.25;;
9306;SDS011;4691;47.612;7.610;2022-08-21T16:09:14;1.77;;;1.30;;
9306;SDS011;4691;47.612;7.610;2022-08-21T16:11:40;1.83;;;1.30;;
9306;SDS011;4691;47.612;7.610;2022-08-21T16:14:06;1.45;;;1.08;;
9306;SDS011;4691;47.612;7.610;2022-08-21T16:16:32;2.10;;;1.00;;
9306;SDS011;4691;47.612;7.610;2022-08-21T16:18:59;3.30;;;1.65;;
9306;SDS011;4691;47.612;7.610;2022-08-21T16:21:24;2.28;;;1.17;;
9306;SDS011;4691;47.612;7.610;2022-08-21T16:23:50;2.95;;;1.30;;
9306;SDS011;4691;47.612;7.610;2022-08-21T16:26:16;3.92;;;1.33;;
9306;SDS011;4691;47.612;7.610;2022-08-21T16:28:42;4.22;;;1.40;;
9306;SDS011;4691;47.612;7.610;2022-08-21T16:31:10;3.38;;;1.67;;
9306;SDS011;4691;47.612;7.610;2022-08-21T16:33:38;2.45;;;1.30;;
9306;SDS011;4691;47.612;7.610;2022-08-21T16:36:06;2.40;;;1.48;;
9306;SDS011;4691;47.612;7.610;2022-08-21T16:38:33;2.72;;;1.10;;
9306;SDS011;4691;47.612;7.610;2022-08-21T16:41:02;1.80;;;1.40;;
9306;SDS011;4691;47.612;7.610;2022-08-21T16:43:29;3.58;;;1.92;;
9306;SDS011;4691;47.612;7.610;2022-08-21T16:45:55;3.65;;;1.38;;
9306;SDS011;4691;47.612;7.610;2022-08-21T16:48:22;2.28;;;1.30;;
9306;SDS011;4691;47.612;7.610;2022-08-21T16:50:48;1.38;;;1.00;;
9306;SDS011;4691;47.612;7.610;2022-08-21T16:53:14;2.88;;;1.33;;
9306;SDS011;4691;47.612;7.610;2022-08-21T16:55:40;2.72;;;1.60;;
9306;SDS011;4691;47.612;7.610;2022-08-21T16:58:28;3.15;;;1.63;;
9306;SDS011;4691;47.612;7.610;2022-08-21T17:00:53;4.43;;;1.60;;
9306;SDS011;4691;47.612;7.610;2022-08-21T17:03:19;2.03;;;1.30;;
9306;SDS011;4691;47.612;7.610;2022-08-21T17:05:52;2.40;;;1.60;;
9306;SDS011;4691;47.612;7.610;2022-08-21T17:08:17;2.88;;;1.60;;
9306;SDS011;4691;47.612;7.610;2022-08-21T17:10:43;2.17;;;1.20;;
9306;SDS011;4691;47.612;7.610;2022-08-21T17:13:11;2.17;;;1.42;;
9306;SDS011;4691;47.612;7.610;2022-08-21T17:15:37;3.60;;;1.35;;
9306;SDS011;4691;47.612;7.610;2022-08-21T17:18:03;3.45;;;1.33;;
9306;SDS011;4691;47.612;7.610;2022-08-21T17:20:33;1.37;;;1.23;;
9306;SDS011;4691;47.612;7.610;2022-08-21T17:23:27;1.80;;;1.20;;
9306;SDS011;4691;47.612;7.610;2022-08-21T17:25:53;2.13;;;1.25;;
9306;SDS011;4691;47.612;7.610;2022-08-21T17:28:24;1.90;;;1.40;;
9306;SDS011;4691;47.612;7.610;2022-08-21T17:30:52;2.40;;;1.20;;
9306;SDS011;4691;47.612;7.610;2022-08-21T17:33:19;1.85;;;1.38;;
9306;SDS011;4691;47.612;7.610;2022-08-21T17:38:52;2.08;;;1.05;;
9306;SDS011;4691;47.612;7.610;2022-08-21T17:41:19;2.67;;;1.20;;
9306;SDS011;4691;47.612;7.610;2022-08-21T17:43:48;2.97;;;1.55;;
9306;SDS011;4691;47.612;7.610;2022-08-21T17:46:21;2.28;;;1.25;;
9306;SDS011;4691;47.612;7.610;2022-08-21T17:48:54;5.00;;;1.60;;
9306;SDS011;4691;47.612;7.610;2022-08-21T17:51:20;2.03;;;1.20;;
9306;SDS011;4691;47.612;7.610;2022-08-21T17:53:46;3.20;;;1.48;;
9306;SDS011;4691;47.612;7.610;2022-08-21T17:56:12;3.53;;;1.20;;
9306;SDS011;4691;47.612;7.610;2022-08-21T17:58:44;1.88;;;1.13;;
9306;SDS011;4691;47.612;7.610;2022-08-21T18:01:19;2.30;;;1.30;;
9306;SDS011;4691;47.612;7.610;2022-08-21T18:03:58;3.75;;;1.50;;
9306;SDS011;4691;47.612;7.610;2022-08-21T18:06:24;1.50;;;1.30;;
9306;SDS011;4691;47.612;7.610;2022-08-21T18:08:49;2.63;;;1.33;;
9306;SDS011;4691;47.612;7.610;2022-08-21T18:11:15;3.35;;;2.00;;
9306;SDS011;4691;47.612;7.610;2022-08-21T18:13:47;2.13;;;1.45;;
9306;SDS011;4691;47.612;7.610;2022-08-21T18:16:13;2.63;;;1.48;;
9306;SDS011;4691;47.612;7.610;2022-08-21T18:18:43;2.53;;;1.27;;
9306;SDS011;4691;47.612;7.610;2022-08-21T18:21:15;2.53;;;1.52;;
9306;SDS011;4691;47.612;7.610;2022-08-21T18:23:43;1.98;;;1.27;;